Time;durP1;ratioP1;P1;durP2;ratioP2;P2;SDS_P1;SDS_P2;PMS_P1;PMS_P2;Temp;Humidity;BMP_temperature;BMP_pressure;BME280_temperature;BME280_humidity;BME280_pressure;Samples;Min_cycle;Max_cycle;Signal;HPM_P1;HPM_P2
2021/12/09 00:00:37;;;;;;;42.00;19.75;;;;;;;1.51;83.36;99036.41;4432992;32;35167;-71
2021/12/09 00:03:24;;;;;;;41.97;19.35;;;;;;;1.25;84.51;99028.25;4424346;32;35529;-71
2021/12/09 00:06:12;;;;;;;41.92;19.48;;;;;;;1.26;83.99;99029.03;4433874;32;34540;-71
2021/12/09 00:09:11;;;;;;;45.17;19.92;;;;;;;1.25;84.67;99022.84;4434591;32;34182;-71
2021/12/09 00:11:59;;;;;;;44.65;20.00;;;;;;;1.31;84.89;99016.38;4423348;32;35162;-71
2021/12/09 00:14:45;;;;;;;48.03;21.37;;;;;;;1.28;84.59;99038.50;4433822;32;34577;-71
2021/12/09 00:17:32;;;;;;;44.55;20.62;;;;;;;1.33;85.10;99033.09;4435037;32;35963;-71
2021/12/09 00:20:19;;;;;;;45.50;19.73;;;;;;;1.30;84.40;99052.53;4435020;32;34920;-71
2021/12/09 00:23:07;;;;;;;47.33;20.55;;;;;;;1.23;84.91;99051.16;4433737;32;34393;-71
2021/12/09 00:25:54;;;;;;;45.75;21.02;;;;;;;1.28;84.79;99049.31;4433949;32;34139;-71
2021/12/09 00:28:41;;;;;;;45.28;20.60;;;;;;;1.56;83.07;99049.91;4422595;32;35778;-71
2021/12/09 00:31:28;;;;;;;46.88;21.02;;;;;;;1.29;84.80;99050.09;4434339;32;34900;-71
2021/12/09 00:34:16;;;;;;;44.42;20.58;;;;;;;1.71;83.04;99044.56;4434383;32;34107;-71
2021/12/09 00:37:34;;;;;;;43.87;20.67;;;;;;;1.47;83.17;99024.50;4432510;32;34204;-71
2021/12/09 00:40:12;;;;;;;43.40;20.85;;;;;;;1.67;82.74;99002.13;4434383;32;35892;-71
2021/12/09 00:42:59;;;;;;;46.28;20.58;;;;;;;1.26;83.63;99002.87;4434323;32;35562;-71
2021/12/09 00:45:46;;;;;;;49.53;22.05;;;;;;;1.21;84.08;99000.16;4434954;32;35123;-72
2021/12/09 00:48:33;;;;;;;45.03;19.35;;;;;;;1.25;84.44;99006.66;4433492;32;34781;-72
2021/12/09 00:51:21;;;;;;;41.35;20.42;;;;;;;1.08;85.20;98987.97;4433111;32;35996;-71
2021/12/09 00:54:07;;;;;;;47.38;20.25;;;;;;;1.32;84.20;98974.81;4432583;32;34781;-71
2021/12/09 00:56:53;;;;;;;46.50;21.23;;;;;;;0.99;85.31;98964.44;4434718;32;34765;-71
2021/12/09 00:59:40;;;;;;;42.58;20.98;;;;;;;1.32;84.56;98966.72;4434122;32;34460;-71
2021/12/09 01:02:26;;;;;;;47.75;20.83;;;;;;;1.07;85.49;98958.53;4434730;32;35053;-70
2021/12/09 01:05:13;;;;;;;49.08;23.45;;;;;;;0.77;86.21;98957.37;4432061;32;34583;-71
2021/12/09 01:07:59;;;;;;;50.35;22.67;;;;;;;1.01;86.27;98957.72;4434812;32;34667;-72
2021/12/09 01:10:46;;;;;;;49.33;22.98;;;;;;;0.85;86.72;98970.34;4433927;32;34158;-70
2021/12/09 01:13:32;;;;;;;49.55;21.48;;;;;;;1.15;85.80;98985.03;4429749;32;34920;-72
2021/12/09 01:16:19;;;;;;;48.40;21.98;;;;;;;1.08;85.51;98979.03;4434790;32;34642;-71
2021/12/09 01:19:05;;;;;;;55.90;23.00;;;;;;;0.96;86.45;98986.56;4433329;32;34717;-71
2021/12/09 01:21:52;;;;;;;50.60;22.75;;;;;;;0.89;86.73;98984.94;4423044;32;35599;-72
2021/12/09 01:24:39;;;;;;;49.08;22.62;;;;;;;0.99;86.27;98988.72;4433582;32;34465;-71
2021/12/09 01:27:26;;;;;;;54.85;23.67;;;;;;;1.08;85.88;98984.44;4422223;32;34834;-71
2021/12/09 01:30:17;;;;;;;53.87;23.50;;;;;;;1.39;84.80;98989.94;4421914;32;35379;-72
2021/12/09 01:33:06;;;;;;;46.08;21.40;;;;;;;1.45;83.90;98980.75;4434247;32;34533;-71
2021/12/09 01:35:52;;;;;;;47.80;21.35;;;;;;;1.26;84.83;98981.28;4432607;32;33852;-71
2021/12/09 01:38:39;;;;;;;42.90;21.58;;;;;;;1.44;83.28;98954.84;4431933;32;34675;-71
2021/12/09 01:41:26;;;;;;;50.08;22.80;;;;;;;1.39;83.38;98957.53;4434504;32;34229;-71
2021/12/09 01:44:13;;;;;;;51.85;21.75;;;;;;;0.99;85.33;98948.28;4434120;32;34722;-71
2021/12/09 01:46:59;;;;;;;49.88;21.98;;;;;;;1.49;83.56;98944.06;4433641;32;35012;-71
2021/12/09 01:49:46;;;;;;;45.90;20.77;;;;;;;0.89;85.06;98928.28;4433171;32;34672;-71
2021/12/09 01:52:33;;;;;;;45.83;20.70;;;;;;;1.56;82.54;98941.91;4431812;32;33715;-71
2021/12/09 01:55:20;;;;;;;46.72;20.55;;;;;;;1.38;83.07;98929.75;4432929;32;36190;-71
2021/12/09 01:58:06;;;;;;;47.33;22.55;;;;;;;0.97;85.35;98918.03;4433785;32;36115;-71
2021/12/09 02:00:54;;;;;;;49.45;20.92;;;;;;;1.08;84.82;98908.91;4433305;32;34438;-71
2021/12/09 02:03:41;;;;;;;48.58;20.92;;;;;;;0.88;85.89;98907.78;4434124;32;35191;-71
2021/12/09 02:06:28;;;;;;;48.40;21.08;;;;;;;0.85;85.81;98924.50;4434339;32;34747;-72
2021/12/09 02:09:15;;;;;;;56.65;22.98;;;;;;;1.06;84.96;98908.38;4435298;32;34897;-71
2021/12/09 02:12:04;;;;;;;49.53;21.40;;;;;;;1.00;84.73;98901.34;4433190;32;35610;-71
2021/12/09 02:14:52;;;;;;;44.10;19.85;;;;;;;0.98;85.74;98896.22;4433459;32;34292;-71
2021/12/09 02:17:39;;;;;;;44.58;20.17;;;;;;;0.63;86.70;98870.75;4434830;32;34603;-71
2021/12/09 02:20:28;;;;;;;48.78;19.73;;;;;;;0.83;85.68;98859.22;4434247;32;35948;-71
2021/12/09 02:23:17;;;;;;;44.58;19.65;;;;;;;0.63;86.92;98878.84;4422772;32;34830;-71
2021/12/09 02:26:04;;;;;;;46.80;19.50;;;;;;;0.67;86.63;98898.00;4434157;32;34981;-70
2021/12/09 02:28:52;;;;;;;42.10;20.48;;;;;;;0.60;86.66;98886.66;4433547;32;34628;-70
2021/12/09 02:31:40;;;;;;;44.47;18.70;;;;;;;0.70;86.14;98894.78;4434669;32;35026;-71
2021/12/09 02:34:28;;;;;;;41.92;18.65;;;;;;;0.44;87.55;98907.34;4433909;32;35013;-71
2021/12/09 02:37:15;;;;;;;40.90;17.90;;;;;;;0.59;86.64;98890.41;4433173;32;34117;-72
2021/12/09 02:40:04;;;;;;;44.20;19.10;;;;;;;0.80;86.32;98875.13;4432626;32;35542;-71
2021/12/09 02:42:50;;;;;;;41.15;18.95;;;;;;;0.43;86.37;98886.88;4422873;32;35919;-71
2021/12/09 02:45:40;;;;;;;39.75;17.42;;;;;;;0.49;86.65;98885.00;4432203;32;35493;-71
2021/12/09 02:48:26;;;;;;;45.12;18.17;;;;;;;0.75;85.95;98877.81;4433188;32;34264;-71
2021/12/09 02:51:13;;;;;;;39.03;17.30;;;;;;;0.99;85.16;98915.91;4422814;32;34539;-71
2021/12/09 02:53:59;;;;;;;44.70;18.25;;;;;;;0.87;85.50;98930.44;4431939;32;34747;-72
2021/12/09 02:56:48;;;;;;;43.67;19.23;;;;;;;0.81;85.60;98918.00;4433015;32;34569;-71
2021/12/09 02:59:35;;;;;;;39.10;17.37;;;;;;;0.90;85.45;98892.12;4433119;32;34877;-70
2021/12/09 03:02:21;;;;;;;39.88;18.10;;;;;;;0.78;85.82;98878.09;4433604;32;34687;-71
2021/12/09 03:05:08;;;;;;;43.47;19.48;;;;;;;0.39;87.04;98883.06;4433978;32;34963;-71
2021/12/09 03:07:54;;;;;;;40.67;17.17;;;;;;;0.62;87.07;98879.09;4434535;32;34423;-70
2021/12/09 03:10:41;;;;;;;46.88;17.00;;;;;;;0.68;87.01;98878.03;4433829;32;35117;-71
2021/12/09 03:13:27;;;;;;;40.83;18.67;;;;;;;0.22;88.47;98857.09;4433241;32;34698;-71
2021/12/09 03:16:14;;;;;;;42.35;17.55;;;;;;;0.52;88.39;98860.22;4431526;32;34557;-71
2021/12/09 03:19:05;;;;;;;37.15;17.08;;;;;;;0.62;87.36;98879.09;4434340;32;34923;-72
2021/12/09 03:21:51;;;;;;;37.90;16.70;;;;;;;0.55;87.91;98894.72;4422347;32;35258;-70
2021/12/09 03:24:38;;;;;;;38.83;16.90;;;;;;;0.83;86.84;98896.19;4433284;32;34543;-71
2021/12/09 03:27:24;;;;;;;39.35;16.12;;;;;;;0.63;87.58;98907.69;4434084;32;34953;-72
2021/12/09 03:30:13;;;;;;;37.40;17.23;;;;;;;0.81;87.13;98907.22;4434555;32;34720;-71
2021/12/09 03:32:59;;;;;;;37.92;16.45;;;;;;;0.49;88.68;98885.00;4432181;32;33909;-71
2021/12/09 03:35:56;;;;;;;37.15;16.67;;;;;;;0.72;88.22;98881.84;4432900;32;35536;-71
2021/12/09 03:38:42;;;;;;;33.65;15.35;;;;;;;0.78;87.67;98866.50;4432830;32;34512;-71
2021/12/09 03:41:29;;;;;;;35.28;14.90;;;;;;;1.07;86.54;98873.03;4432240;32;33584;-71
2021/12/09 03:44:16;;;;;;;37.50;16.73;;;;;;;1.10;85.14;98877.06;4434133;32;35116;-72
2021/12/09 03:47:05;;;;;;;38.92;16.83;;;;;;;0.97;nan;98883.81;4422110;32;34424;-70
2021/12/09 03:49:52;;;;;;;37.17;15.77;;;;;;;0.85;86.40;98896.69;4432965;32;34910;-71
2021/12/09 03:52:39;;;;;;;36.95;16.42;;;;;;;1.12;85.71;98896.50;4434179;32;34086;-72
2021/12/09 03:55:27;;;;;;;37.30;16.17;;;;;;;1.08;85.60;98879.22;4431722;32;33991;-71
2021/12/09 03:58:15;;;;;;;41.58;16.87;;;;;;;0.76;87.68;98890.22;4433430;32;34182;-71
2021/12/09 04:01:01;;;;;;;37.83;16.15;;;;;;;1.04;86.50;98891.62;4431400;32;34972;-71
2021/12/09 04:03:48;;;;;;;37.00;16.20;;;;;;;1.03;85.79;98895.41;4434339;32;35805;-71
2021/12/09 04:06:34;;;;;;;35.67;15.80;;;;;;;0.68;87.24;98886.13;4431860;32;34116;-71
2021/12/09 04:09:22;;;;;;;37.80;16.08;;;;;;;0.84;86.93;98881.59;4422431;32;35497;-72
2021/12/09 04:12:09;;;;;;;39.47;15.82;;;;;;;1.08;86.49;98890.00;4432151;32;34460;-72
2021/12/09 04:14:56;;;;;;;38.38;17.52;;;;;;;0.92;86.54;98882.97;4433350;32;34459;-71
2021/12/09 04:17:42;;;;;;;35.05;15.40;;;;;;;1.11;85.56;98870.59;4431982;32;34407;-71
2021/12/09 04:20:29;;;;;;;37.75;15.65;;;;;;;0.73;86.81;98879.94;4421795;32;34109;-71
2021/12/09 04:23:15;;;;;;;37.88;16.42;;;;;;;1.01;85.52;98862.50;4431110;32;34970;-71
2021/12/09 04:26:02;;;;;;;40.72;15.82;;;;;;;0.92;86.00;98877.59;4431141;32;36146;-71
2021/12/09 04:28:48;;;;;;;33.65;16.12;;;;;;;1.20;84.92;98898.69;4421553;32;34773;-71
2021/12/09 04:31:35;;;;;;;34.90;15.05;;;;;;;1.13;85.42;98903.50;4420137;32;34617;-71
2021/12/09 04:34:22;;;;;;;32.17;15.05;;;;;;;1.10;85.96;98899.47;4428909;32;35711;-71
2021/12/09 04:37:09;;;;;;;31.83;14.43;;;;;;;1.25;84.51;98898.69;4432804;32;34663;-71
2021/12/09 04:39:55;;;;;;;32.75;14.85;;;;;;;1.05;85.63;98888.69;4433179;32;34305;-71
2021/12/09 04:42:42;;;;;;;34.08;15.55;;;;;;;1.21;84.93;98873.31;4431742;32;34577;-72
2021/12/09 04:45:30;;;;;;;35.85;15.25;;;;;;;1.03;85.97;98865.75;4428989;32;34616;-71
2021/12/09 04:48:17;;;;;;;31.62;14.75;;;;;;;1.08;85.17;98863.03;4432702;32;34756;-71
2021/12/09 04:51:04;;;;;;;30.95;13.88;;;;;;;0.92;85.73;98856.00;4431994;32;33712;-71
2021/12/09 04:53:56;;;;;;;30.48;14.73;;;;;;;1.42;83.84;98870.63;4421802;32;35533;-71
2021/12/09 04:56:43;;;;;;;30.83;14.60;;;;;;;1.50;83.08;98873.59;4429068;32;33875;-71
2021/12/09 04:59:29;;;;;;;34.45;14.48;;;;;;;1.18;84.76;98860.34;4433014;32;34476;-71
2021/12/09 05:02:27;;;;;;;31.80;14.15;;;;;;;1.11;84.76;98851.69;4417859;32;34188;-71
2021/12/09 05:05:14;;;;;;;33.45;14.85;;;;;;;0.86;85.93;98857.87;4433190;32;34135;-72
2021/12/09 05:08:00;;;;;;;29.40;13.85;;;;;;;1.23;84.88;98862.25;4433105;32;34982;-72
2021/12/09 05:10:57;;;;;;;32.17;13.38;;;;;;;1.09;85.21;98875.47;4431313;32;33357;-72
2021/12/09 05:13:44;;;;;;;27.42;13.10;;;;;;;1.51;83.65;98871.72;4421230;32;34899;-72
2021/12/09 05:16:31;;;;;;;27.77;13.20;;;;;;;1.33;83.46;98868.47;4432644;32;34510;-72
2021/12/09 05:19:18;;;;;;;27.67;12.52;;;;;;;1.19;83.88;98883.56;4417780;32;35921;-72
2021/12/09 05:22:05;;;;;;;29.55;12.80;;;;;;;1.15;84.57;98873.59;4431290;32;34568;-72
2021/12/09 05:24:52;;;;;;;29.42;12.68;;;;;;;1.20;84.38;98874.41;4432202;32;33883;-73
2021/12/09 05:27:39;;;;;;;29.63;13.25;;;;;;;1.41;83.07;98867.13;4429608;32;34168;-72
2021/12/09 05:30:37;;;;;;;29.08;14.05;;;;;;;1.21;83.69;98869.81;4433281;32;36036;-72
2021/12/09 05:33:25;;;;;;;30.75;14.10;;;;;;;1.44;83.04;98853.09;4419308;32;34595;-72
2021/12/09 05:36:12;;;;;;;27.60;13.38;;;;;;;1.30;83.60;98865.50;4409951;32;34251;-72
2021/12/09 05:38:59;;;;;;;25.52;12.02;;;;;;;1.60;82.26;98855.78;4434239;32;34146;-72
2021/12/09 05:41:48;;;;;;;24.42;12.23;;;;;;;1.50;82.72;98851.19;4430631;32;34508;-74
2021/12/09 05:44:35;;;;;;;25.20;12.43;;;;;;;1.55;82.14;98829.59;4432868;32;35293;-71
2021/12/09 05:47:22;;;;;;;26.40;12.50;;;;;;;1.41;83.09;98836.63;4431429;32;34283;-74
2021/12/09 05:50:11;;;;;;;28.90;13.55;;;;;;;1.25;82.97;98831.22;4433166;32;35512;-74
2021/12/09 05:52:57;;;;;;;27.65;12.02;;;;;;;1.43;82.63;98805.59;4436160;32;36140;-74
2021/12/09 05:55:44;;;;;;;26.75;12.65;;;;;;;0.95;85.11;98805.03;4435160;32;34215;-72
2021/12/09 05:58:31;;;;;;;26.98;13.10;;;;;;;0.69;85.85;98781.81;4433364;32;34249;-73
2021/12/09 06:01:20;;;;;;;30.42;13.55;;;;;;;0.82;85.84;98798.25;4437377;32;33706;-74
2021/12/09 06:04:08;;;;;;;29.42;14.85;;;;;;;0.83;85.58;98799.09;4435572;32;33516;-74
2021/12/09 06:06:54;;;;;;;33.75;14.45;;;;;;;0.97;85.46;98804.75;4432738;32;34535;-73
2021/12/09 06:09:41;;;;;;;33.03;14.70;;;;;;;1.06;85.03;98808.56;4438644;32;34994;-72
2021/12/09 06:12:27;;;;;;;31.65;14.57;;;;;;;0.85;85.82;98803.16;4437221;32;35490;-73
2021/12/09 06:15:14;;;;;;;34.15;15.95;;;;;;;1.18;84.82;98797.50;4437128;32;34679;-73
2021/12/09 06:18:00;;;;;;;36.60;16.87;;;;;;;1.24;85.02;98799.91;4438287;32;35505;-73
2021/12/09 06:20:47;;;;;;;34.47;16.42;;;;;;;1.05;85.88;98799.66;4436582;32;33839;-72
2021/12/09 06:23:33;;;;;;;37.97;16.73;;;;;;;0.63;87.55;98789.09;4435983;32;35768;-73
2021/12/09 06:26:20;;;;;;;35.53;16.23;;;;;;;1.02;86.31;98780.47;4435173;32;34575;-73
2021/12/09 06:29:07;;;;;;;33.97;17.17;;;;;;;1.14;85.96;98789.13;4437124;32;34739;-73
2021/12/09 06:31:54;;;;;;;35.47;16.23;;;;;;;1.19;85.92;98778.31;4436139;32;33902;-73
2021/12/09 06:34:40;;;;;;;38.97;17.25;;;;;;;1.03;85.77;98782.13;4437180;32;34739;-73
2021/12/09 06:37:27;;;;;;;38.58;16.60;;;;;;;0.93;86.65;98777.50;4438486;32;36017;-73
2021/12/09 06:40:19;;;;;;;36.55;16.40;;;;;;;1.20;85.45;98771.06;4436406;32;34185;-74
2021/12/09 06:43:06;;;;;;;30.20;15.48;;;;;;;0.93;86.25;98766.72;4425657;32;34173;-73
2021/12/09 06:45:56;;;;;;;34.78;15.25;;;;;;;1.12;85.56;98775.91;4436605;32;35137;-71
2021/12/09 06:48:43;;;;;;;39.83;18.08;;;;;;;0.80;86.89;98778.06;4434537;32;35930;-73
2021/12/09 06:51:29;;;;;;;31.37;15.25;;;;;;;1.11;86.25;98770.75;4434351;32;35510;-72
2021/12/09 06:54:16;;;;;;;36.25;15.43;;;;;;;0.88;86.97;98774.81;4433331;32;34848;-72
2021/12/09 06:57:03;;;;;;;35.92;16.15;;;;;;;1.31;85.34;98791.56;4431519;32;33708;-73
2021/12/09 06:59:49;;;;;;;36.22;16.10;;;;;;;1.17;85.21;98802.09;4434528;32;34985;-72
2021/12/09 07:02:36;;;;;;;38.45;16.87;;;;;;;1.46;84.52;98801.53;4434342;32;34894;-73
2021/12/09 07:05:25;;;;;;;34.65;15.38;;;;;;;1.03;86.17;98803.69;4434633;32;34360;-72
2021/12/09 07:08:12;;;;;;;34.58;14.93;;;;;;;1.22;85.71;98804.75;4433401;32;35567;-72
2021/12/09 07:10:58;;;;;;;31.23;15.32;;;;;;;0.97;86.31;98812.84;4431135;32;36654;-73
2021/12/09 07:13:46;;;;;;;30.50;14.48;;;;;;;1.12;85.83;98802.06;4431789;32;34517;-73
2021/12/09 07:16:33;;;;;;;30.50;15.43;;;;;;;1.00;85.72;98802.34;4420989;32;35416;-71
2021/12/09 07:19:19;;;;;;;33.65;14.48;;;;;;;0.97;86.08;98810.13;4431066;32;35309;-72
2021/12/09 07:22:05;;;;;;;32.15;15.25;;;;;;;1.07;85.88;98802.06;4433818;32;35028;-71
2021/12/09 07:24:52;;;;;;;30.52;14.82;;;;;;;1.07;85.59;98810.97;4432267;32;34605;-71
2021/12/09 07:27:38;;;;;;;37.33;15.82;;;;;;;1.19;85.16;98796.41;4430117;32;33847;-73
2021/12/09 07:30:26;;;;;;;29.87;14.63;;;;;;;1.13;84.91;98782.91;4430169;32;34324;-72
2021/12/09 07:33:12;;;;;;;29.58;13.43;;;;;;;1.08;85.56;98782.09;4419417;32;34526;-73
2021/12/09 07:35:59;;;;;;;31.98;13.95;;;;;;;1.07;85.40;98777.78;4416851;32;35500;-74
2021/12/09 07:38:48;;;;;;;34.45;14.45;;;;;;;0.93;86.01;98771.31;4430739;32;36047;-74
2021/12/09 07:41:34;;;;;;;30.45;13.32;;;;;;;1.13;85.36;98782.09;4427657;32;34610;-75
2021/12/09 07:44:20;;;;;;;27.85;13.75;;;;;;;1.05;85.93;98778.06;4438751;32;34938;-75
2021/12/09 07:47:07;;;;;;;29.90;14.18;;;;;;;1.02;86.32;98775.09;4430385;32;35249;-75
2021/12/09 07:49:53;;;;;;;31.70;14.73;;;;;;;0.73;87.31;98772.91;4428148;32;32791;-75
2021/12/09 07:52:44;;;;;;;30.75;13.88;;;;;;;0.77;87.63;98765.09;4425657;32;34192;-72
2021/12/09 07:55:31;;;;;;;29.65;13.40;;;;;;;0.81;87.90;98760.78;4431430;32;35943;-72
2021/12/09 07:58:17;;;;;;;31.17;13.20;;;;;;;0.73;88.28;98767.50;4430826;32;34777;-71
2021/12/09 08:01:04;;;;;;;30.52;12.90;;;;;;;0.83;88.40;98747.84;4426779;32;33994;-73
2021/12/09 08:03:51;;;;;;;30.85;14.07;;;;;;;0.79;88.37;98739.47;4430468;32;34538;-71
2021/12/09 08:06:37;;;;;;;29.80;14.02;;;;;;;0.60;88.58;98749.19;4431869;32;35077;-71
2021/12/09 08:09:24;;;;;;;32.60;13.68;;;;;;;0.52;89.67;98749.69;4417789;32;34691;-72
2021/12/09 08:12:10;;;;;;;33.17;13.68;;;;;;;0.47;89.98;98741.59;4430402;32;34290;-72
2021/12/09 08:14:57;;;;;;;30.37;14.02;;;;;;;0.60;89.79;98757.25;4429793;32;34338;-73
2021/12/09 08:17:46;;;;;;;35.10;15.40;;;;;;;0.61;89.12;98748.09;4423393;32;34567;-74
2021/12/09 08:20:33;;;;;;;37.97;13.80;;;;;;;0.98;88.00;98741.66;4425018;32;35330;-74
2021/12/09 08:23:19;;;;;;;31.05;13.27;;;;;;;0.61;89.06;98754.28;4425118;32;33927;-72
2021/12/09 08:26:06;;;;;;;29.95;12.55;;;;;;;0.70;88.59;98754.56;4430274;32;34613;-70
2021/12/09 08:28:52;;;;;;;30.85;13.88;;;;;;;0.76;88.28;98750.78;4431299;32;35042;-71
2021/12/09 08:31:39;;;;;;;32.80;13.73;;;;;;;0.98;87.55;98747.03;4425645;32;34114;-70
2021/12/09 08:34:34;;;;;;;30.70;13.55;;;;;;;0.79;88.05;98752.16;4424025;32;33124;-70
2021/12/09 08:37:23;;;;;;;30.20;14.02;;;;;;;0.85;87.61;98734.88;4429122;32;34530;-71
2021/12/09 08:40:10;;;;;;;31.92;14.32;;;;;;;0.89;87.62;98734.09;4425643;32;34495;-71
2021/12/09 08:42:57;;;;;;;29.65;12.65;;;;;;;0.87;88.15;98730.84;4427489;32;34499;-70
2021/12/09 08:45:44;;;;;;;29.30;13.88;;;;;;;1.03;87.37;98730.88;4429486;32;33864;-70
2021/12/09 08:48:30;;;;;;;30.90;13.82;;;;;;;0.86;87.74;98726.53;4431277;32;34530;-71
2021/12/09 08:51:17;;;;;;;30.90;13.88;;;;;;;1.01;87.75;98719.53;4431087;32;34604;-71
2021/12/09 08:54:04;;;;;;;28.92;12.57;;;;;;;0.95;88.01;98715.22;4416988;32;34355;-71
2021/12/09 08:56:51;;;;;;;28.33;13.45;;;;;;;0.92;87.97;98727.34;4428281;32;35282;-71
2021/12/09 08:59:37;;;;;;;30.00;13.23;;;;;;;0.90;88.03;98730.31;4424964;32;34531;-70
2021/12/09 09:02:26;;;;;;;31.42;14.23;;;;;;;0.83;88.48;98734.38;4429992;32;35537;-72
2021/12/09 09:05:13;;;;;;;27.48;13.25;;;;;;;0.99;87.88;98727.87;4428234;32;34634;-71
2021/12/09 09:08:00;;;;;;;27.27;13.82;;;;;;;1.11;87.57;98722.19;4426293;32;35600;-70
2021/12/09 09:10:49;;;;;;;34.20;14.20;;;;;;;0.98;88.28;98738.94;4424805;32;34625;-72
2021/12/09 09:13:35;;;;;;;33.08;13.18;;;;;;;0.79;89.33;98739.47;4428619;32;35026;-71
2021/12/09 09:16:22;;;;;;;29.67;12.90;;;;;;;1.08;88.04;98738.94;4429174;32;34634;-72
2021/12/09 09:19:08;;;;;;;30.23;13.07;;;;;;;1.09;87.60;98729.78;4426827;32;33726;-71
2021/12/09 09:21:55;;;;;;;29.15;13.57;;;;;;;1.02;88.04;98738.13;4432945;32;35564;-71
2021/12/09 09:24:41;;;;;;;27.83;12.73;;;;;;;1.02;88.47;98737.31;4426651;32;35621;-70
2021/12/09 09:27:28;;;;;;;31.23;13.95;;;;;;;1.18;87.41;98744.31;4428655;32;34208;-72
2021/12/09 09:30:18;;;;;;;29.52;13.45;;;;;;;0.85;89.13;98751.06;4426268;32;34770;-71
2021/12/09 09:33:08;;;;;;;28.87;13.48;;;;;;;1.19;88.12;98737.03;4427905;32;35336;-71
2021/12/09 09:35:55;;;;;;;30.83;13.80;;;;;;;1.12;88.66;98723.84;4424082;32;35851;-70
2021/12/09 09:38:41;;;;;;;29.63;13.25;;;;;;;1.02;89.53;98705.75;4427746;32;35388;-71
2021/12/09 09:41:33;;;;;;;34.40;14.23;;;;;;;1.38;88.60;98708.41;4426817;32;33897;-71
2021/12/09 09:44:23;;;;;;;;;;;;;;;1.21;89.91;98689.81;4428274;32;35468;-71
2021/12/09 09:47:09;;;;;;;30.62;13.93;;;;;;;1.24;89.22;98689.28;4429878;32;36697;-70
2021/12/09 09:49:57;;;;;;;26.30;13.43;;;;;;;1.27;89.02;98680.63;4427196;32;35696;-70
2021/12/09 09:52:44;;;;;;;31.00;13.68;;;;;;;1.30;89.28;98680.06;4429090;32;34001;-71
2021/12/09 09:55:30;;;;;;;28.45;13.02;;;;;;;1.09;90.39;98675.81;4425317;32;35545;-72
2021/12/09 09:58:18;;;;;;;27.15;13.75;;;;;;;1.26;90.50;98668.22;4426368;32;34896;-71
2021/12/09 10:01:04;;;;;;;28.33;12.93;;;;;;;1.30;89.41;98653.09;4424950;32;34339;-72
2021/12/09 10:03:58;;;;;;;30.40;12.60;;;;;;;1.27;89.53;98650.94;4427661;32;34226;-73
2021/12/09 10:06:45;;;;;;;30.92;12.98;;;;;;;1.39;89.19;98657.94;4429400;32;34291;-71
2021/12/09 10:09:32;;;;;;;29.63;13.88;;;;;;;1.41;89.28;98637.69;4426819;32;33903;-71
2021/12/09 10:12:18;;;;;;;33.33;13.62;;;;;;;1.35;89.35;98653.06;4429584;32;36077;-72
2021/12/09 10:15:05;;;;;;;31.12;13.95;;;;;;;1.46;89.92;98647.66;4429345;32;35244;-72
2021/12/09 10:17:51;;;;;;;25.80;11.43;;;;;;;1.39;89.85;98631.75;4425502;32;34756;-72
2021/12/09 10:20:49;;;;;;;31.85;13.88;;;;;;;1.58;89.20;98631.94;4427454;32;35928;-71
2021/12/09 10:23:45;;;;;;;33.20;14.18;;;;;;;1.76;88.12;98639.41;4419156;32;90962;-73
2021/12/09 10:26:41;;;;;;;27.33;12.37;;;;;;;1.73;88.14;98629.16;4426479;32;34089;-73
2021/12/09 10:29:42;;;;;;;31.27;14.20;;;;;;;1.45;88.64;98617.16;4425212;32;34564;-73
2021/12/09 10:32:31;;;;;;;26.75;13.02;;;;;;;1.49;88.53;98626.31;4431297;32;36922;-73
2021/12/09 10:35:20;;;;;;;29.27;13.07;;;;;;;1.46;88.50;98628.75;4429134;32;34073;-74
2021/12/09 10:38:07;;;;;;;31.73;14.10;;;;;;;1.29;89.86;98640.69;4427145;32;35243;-74
2021/12/09 10:40:53;;;;;;;28.85;11.88;;;;;;;1.54;88.77;98630.91;4428000;32;34312;-71
2021/12/09 10:43:50;;;;;;;29.90;13.62;;;;;;;1.63;87.60;98645.44;4427689;32;33624;-72
2021/12/09 10:46:54;;;;;;;30.40;12.90;;;;;;;1.74;87.50;98651.59;4417316;32;36509;-70
2021/12/09 10:50:06;;;;;;;28.35;12.73;;;;;;;1.69;87.65;98646.22;4429369;32;34410;-71
2021/12/09 10:56:10;;;;;;;29.90;13.10;;;;;;;1.68;88.62;98644.59;4432220;32;35406;-70
2021/12/09 10:58:57;;;;;;;28.77;13.50;;;;;;;1.85;88.14;98636.13;4430039;32;34193;-69
2021/12/09 11:01:43;;;;;;;33.45;15.85;;;;;;;1.39;89.33;98634.44;4430245;32;33961;-69
2021/12/09 11:04:29;;;;;;;29.27;12.40;;;;;;;1.56;89.70;98645.72;4432730;32;34571;-69
2021/12/09 11:07:26;;;;;;;30.35;13.62;;;;;;;1.69;88.93;98632.72;4431847;32;34855;-68
2021/12/09 11:10:19;;;;;;;27.70;12.90;;;;;;;1.22;91.22;98618.56;4431396;32;35359;-68
2021/12/09 11:13:06;;;;;;;29.23;13.13;;;;;;;1.51;90.21;98639.56;4431290;32;35123;-68
2021/12/09 11:16:23;;;;;;;29.98;14.18;;;;;;;1.70;89.43;98627.03;4431291;32;35446;-68
2021/12/09 11:19:19;;;;;;;28.62;13.32;;;;;;;1.62;89.39;98611.41;4432374;32;35940;-68
2021/12/09 11:22:12;;;;;;;29.23;12.85;;;;;;;1.79;88.40;98605.63;4431691;32;34512;-68
2021/12/09 11:25:06;;;;;;;31.90;14.40;;;;;;;1.57;89.46;98604.16;4434285;32;34871;-69
2021/12/09 11:28:05;;;;;;;34.55;14.10;;;;;;;1.49;90.49;98590.41;4436056;32;34550;-69
2021/12/09 11:31:14;;;;;;;33.17;14.25;;;;;;;1.37;91.18;98582.66;4431348;32;34977;-72
2021/12/09 11:34:09;;;;;;;28.75;12.55;;;;;;;1.58;90.15;98580.66;4433360;32;34686;-74
2021/12/09 11:37:08;;;;;;;32.35;13.88;;;;;;;1.89;89.21;98583.19;4437437;32;34203;-71
2021/12/09 11:39:54;;;;;;;29.30;13.82;;;;;;;1.54;91.12;98574.19;4433619;32;35180;-71
2021/12/09 11:45:34;;;;;;;31.83;13.98;;;;;;;1.31;91.40;98584.56;4433609;32;35732;-72
2021/12/09 11:48:20;;;;;;;27.87;13.93;;;;;;;1.61;91.26;98587.38;4434933;32;35203;-71
2021/12/09 11:51:07;;;;;;;33.30;14.77;;;;;;;1.58;91.15;98594.16;4434744;32;35445;-72
2021/12/09 11:53:57;;;;;;;34.88;15.32;;;;;;;1.35;92.72;98579.41;4435106;32;34941;-71
2021/12/09 12:12:59;;;;;;;37.75;16.40;;;;;;;1.75;90.70;98554.09;4428236;32;34225;-72
2021/12/09 12:15:49;;;;;;;34.05;15.05;;;;;;;1.77;91.18;98562.72;4436230;32;35577;-73
2021/12/09 12:18:55;;;;;;;34.53;15.40;;;;;;;1.68;92.15;98550.06;4436927;32;34875;-71
2021/12/09 12:25:05;;;;;;;32.97;14.77;;;;;;;1.70;91.64;98554.09;4437451;32;35084;-71
2021/12/09 12:28:08;;;;;;;34.45;15.50;;;;;;;2.11;89.91;98553.06;4436037;32;34619;-71
2021/12/09 12:37:12;;;;;;;31.58;14.93;;;;;;;1.63;90.98;98534.72;4436664;32;34171;-70
2021/12/09 12:40:07;;;;;;;33.55;14.85;;;;;;;1.86;90.99;98537.81;4435310;32;34509;-70
2021/12/09 12:43:03;;;;;;;31.62;15.18;;;;;;;1.88;90.89;98543.72;4425147;32;35629;-71
2021/12/09 12:49:05;;;;;;;31.60;14.68;;;;;;;1.93;90.75;98552.59;4438217;32;35450;-72
2021/12/09 12:52:11;;;;;;;34.80;15.93;;;;;;;1.80;91.42;98566.75;4433625;32;35485;-71
2021/12/09 12:55:11;;;;;;;39.17;16.77;;;;;;;2.05;90.44;98575.78;4432975;32;34937;-71
2021/12/09 12:58:06;;;;;;;34.15;16.50;;;;;;;1.78;91.75;98572.44;4434476;32;34374;-73
2021/12/09 13:00:53;;;;;;;33.05;15.93;;;;;;;1.56;92.04;98582.81;4436385;32;34262;-72
2021/12/09 13:03:46;;;;;;;38.53;17.35;;;;;;;1.64;92.17;98576.03;4437475;32;34689;-72
2021/12/09 13:06:39;;;;;;;;;;;;;;;1.68;91.92;98577.91;4436931;32;35534;-71
2021/12/09 13:09:40;;;;;;;36.45;17.02;;;;;;;1.74;91.43;98560.59;4437776;32;35897;-72
2021/12/09 13:12:44;;;;;;;38.83;17.23;;;;;;;1.52;92.27;98554.75;4436136;32;35132;-72
2021/12/09 13:15:39;;;;;;;31.65;15.90;;;;;;;1.94;89.95;98570.44;4435533;32;34675;-71
2021/12/09 13:22:01;;;;;;;38.33;17.35;;;;;;;1.82;89.09;98556.47;4435759;32;34586;-71
2021/12/09 13:24:54;;;;;;;31.77;15.77;;;;;;;1.46;91.54;98555.88;4436168;32;33403;-71
2021/12/09 13:27:56;;;;;;;32.80;15.55;;;;;;;1.22;92.29;98539.50;4434640;32;35537;-71
2021/12/09 13:31:06;;;;;;;33.78;15.82;;;;;;;1.74;90.99;98543.56;4430134;32;34899;-72
2021/12/09 13:34:06;;;;;;;35.67;15.95;;;;;;;1.30;90.96;98537.03;4437928;32;35650;-72
2021/12/09 13:37:28;;;;;;;38.10;16.67;;;;;;;1.45;91.99;98540.75;4417765;32;34240;-73
2021/12/09 13:50:38;;;;;;;35.00;15.90;;;;;;;0.98;93.99;98533.94;4438663;32;34460;-75
2021/12/09 13:55:49;;;;;;;36.42;16.20;;;;;;;1.73;91.17;98531.16;4437636;32;35983;-74
2021/12/09 13:58:36;;;;;;;37.25;15.68;;;;;;;1.22;93.64;98526.81;4439685;32;34638;-75